createdAt,value
2024-03-01T00:01:17.095Z,23.02
2024-03-01T00:03:48.121Z,22.45
2024-03-01T00:06:17.870Z,19.58
2024-03-01T00:08:48.813Z,21.30
2024-03-01T00:11:19.342Z,20.58
2024-03-01T00:13:55.120Z,25.40
2024-03-01T00:16:26.064Z,20.38
2024-03-01T00:18:55.673Z,25.23
2024-03-01T00:21:23.730Z,21.10
2024-03-01T00:23:54.656Z,18.33
2024-03-01T00:26:26.846Z,16.65
2024-03-01T00:28:55.680Z,20.50
2024-03-01T00:31:29.306Z,17.67
2024-03-01T00:33:59.969Z,19.23
2024-03-01T00:36:30.144Z,20.60
2024-03-01T00:39:02.060Z,18.17
2024-03-01T00:41:32.741Z,16.92
2024-03-01T00:44:03.003Z,17.13
2024-03-01T00:46:32.315Z,20.08
2024-03-01T00:49:02.465Z,23.23
2024-03-01T00:51:35.262Z,27.00
2024-03-01T00:54:05.123Z,18.20
2024-03-01T00:56:35.614Z,19.75
2024-03-01T00:59:05.158Z,20.15
2024-03-01T01:01:35.879Z,23.83
2024-03-01T01:04:05.415Z,25.90
2024-03-01T01:06:34.544Z,20.65
2024-03-01T01:09:06.935Z,20.13
2024-03-01T01:11:39.919Z,17.90
2024-03-01T01:14:10.770Z,18.35
2024-03-01T01:16:42.933Z,18.13
2024-03-01T01:19:17.856Z,21.58
2024-03-01T01:21:47.655Z,22.42
2024-03-01T01:24:17.656Z,16.20
2024-03-01T01:26:49.481Z,18.30
2024-03-01T01:29:20.636Z,17.42
2024-03-01T01:31:52.262Z,17.55
2024-03-01T01:34:22.700Z,21.90
2024-03-01T01:36:56.227Z,20.52
2024-03-01T01:41:56.284Z,18.50
2024-03-01T01:44:26.868Z,19.23
2024-03-01T01:46:57.944Z,18.23
2024-03-01T01:49:31.805Z,20.75
2024-03-01T01:52:03.626Z,19.77
2024-03-01T01:54:33.769Z,21.52
2024-03-01T01:57:06.602Z,18.90
2024-03-01T01:59:38.572Z,21.90
2024-03-01T02:02:09.735Z,16.85
2024-03-01T02:04:41.156Z,17.92
2024-03-01T02:07:10.770Z,19.17
2024-03-01T02:09:41.461Z,16.98
2024-03-01T02:12:15.346Z,19.15
2024-03-01T02:14:44.348Z,21.48
2024-03-01T02:17:14.625Z,18.00
2024-03-01T02:19:43.573Z,16.65
2024-03-01T02:22:22.053Z,15.45
2024-03-01T02:24:53.164Z,14.93
2024-03-01T02:27:23.732Z,16.23
2024-03-01T02:29:53.509Z,19.00
2024-03-01T02:32:26.087Z,20.17
2024-03-01T02:34:54.897Z,19.73
2024-03-01T02:37:24.124Z,18.70
2024-03-01T02:39:58.103Z,21.02
2024-03-01T02:42:30.032Z,19.80
2024-03-01T02:44:59.456Z,21.80
2024-03-01T02:47:29.284Z,22.30
2024-03-01T02:49:59.573Z,21.05
2024-03-01T02:52:31.353Z,21.17
2024-03-01T02:55:02.470Z,20.67
2024-03-01T02:57:32.534Z,22.58
2024-03-01T03:00:07.324Z,19.50
2024-03-01T03:02:36.667Z,18.23
2024-03-01T03:05:06.641Z,22.42
2024-03-01T03:07:36.892Z,15.57
2024-03-01T03:10:09.203Z,21.52
2024-03-01T03:12:42.034Z,18.77
2024-03-01T03:15:11.824Z,23.48
2024-03-01T03:17:41.877Z,17.00
2024-03-01T03:20:14.859Z,18.58
2024-03-01T03:22:47.628Z,18.80
2024-03-01T03:25:20.395Z,18.60
2024-03-01T03:27:51.692Z,24.08
2024-03-01T03:30:23.522Z,18.83
2024-03-01T03:32:52.717Z,20.25
2024-03-01T03:35:32.156Z,15.50
2024-03-01T03:38:01.147Z,18.98
2024-03-01T03:40:31.668Z,18.55
2024-03-01T03:43:02.596Z,22.63
2024-03-01T03:45:35.926Z,22.85
2024-03-01T03:48:06.375Z,14.25
2024-03-01T03:50:37.300Z,19.10
2024-03-01T03:53:07.362Z,19.80
2024-03-01T03:55:39.386Z,16.45
2024-03-01T03:58:08.215Z,17.52
2024-03-01T04:00:37.254Z,19.45
2024-03-01T04:03:09.830Z,19.52
2024-03-01T04:05:38.846Z,20.45
2024-03-01T04:08:08.322Z,17.13
2024-03-01T04:10:40.912Z,19.60
2024-03-01T04:13:10.946Z,18.60
2024-03-01T04:15:40.653Z,18.15
2024-03-01T04:18:20.093Z,20.20
2024-03-01T04:20:50.021Z,20.15
2024-03-01T04:23:19.296Z,19.23
2024-03-01T04:25:52.543Z,19.55
2024-03-01T04:30:52.109Z,16.48
2024-03-01T04:33:21.613Z,20.38
2024-03-01T04:35:52.907Z,16.70
2024-03-01T04:38:27.598Z,18.33
2024-03-01T04:40:59.832Z,21.48
2024-03-01T04:43:29.996Z,16.25
2024-03-01T04:45:59.705Z,18.50
2024-03-01T04:48:29.426Z,20.40
2024-03-01T04:50:58.238Z,19.67
2024-03-01T04:53:28.924Z,17.17
2024-03-01T04:56:00.664Z,16.80
2024-03-01T04:58:34.463Z,18.42
2024-03-01T05:01:03.613Z,17.42
2024-03-01T05:03:33.322Z,15.77
2024-03-01T05:06:04.630Z,20.00
2024-03-01T05:08:34.694Z,18.80
2024-03-01T05:11:05.190Z,23.20
2024-03-01T05:13:36.921Z,25.00
2024-03-01T05:16:07.158Z,19.05
2024-03-01T05:18:36.155Z,18.27
2024-03-01T05:21:10.314Z,18.13
2024-03-01T05:23:40.403Z,22.00
2024-03-01T05:26:11.971Z,21.50
2024-03-01T05:28:41.335Z,16.70
2024-03-01T05:31:20.200Z,19.55
2024-03-01T05:33:55.072Z,23.40
2024-03-01T05:36:24.801Z,18.10
2024-03-01T05:38:54.824Z,17.42
2024-03-01T05:41:28.720Z,18.60
2024-03-01T05:43:57.910Z,17.70
2024-03-01T05:46:29.680Z,19.33
2024-03-01T05:49:01.368Z,23.15
2024-03-01T05:51:30.599Z,15.75
2024-03-01T05:53:59.547Z,15.63
2024-03-01T05:56:30.095Z,19.40
2024-03-01T05:58:59.698Z,19.25
2024-03-01T06:01:30.692Z,15.48
2024-03-01T06:04:00.424Z,20.50
2024-03-01T06:06:31.781Z,17.67
2024-03-01T06:09:03.176Z,16.38
2024-03-01T06:11:34.207Z,18.58
2024-03-01T06:14:04.732Z,17.48
2024-03-01T06:16:34.922Z,16.88
2024-03-01T06:19:03.955Z,16.30
2024-03-01T06:21:37.548Z,16.75
2024-03-01T06:24:07.348Z,17.65
2024-03-01T06:26:39.761Z,14.75
2024-03-01T06:29:10.454Z,24.02
2024-03-01T06:31:39.763Z,16.92
2024-03-01T06:34:10.746Z,21.65
2024-03-01T06:36:42.462Z,19.90
2024-03-01T06:39:11.911Z,16.35
2024-03-01T06:41:43.468Z,26.27
2024-03-01T06:44:15.434Z,18.92
2024-03-01T06:46:47.506Z,16.00
2024-03-01T06:49:17.096Z,20.33
2024-03-01T06:51:46.265Z,22.13
2024-03-01T06:54:17.057Z,20.83
2024-03-01T06:56:51.368Z,23.50
2024-03-01T06:59:20.677Z,19.42
2024-03-01T07:01:50.129Z,22.35
2024-03-01T07:04:19.489Z,23.17
2024-03-01T07:06:48.985Z,25.13
2024-03-01T07:09:20.610Z,17.77
2024-03-01T07:11:51.409Z,20.10
2024-03-01T07:14:20.409Z,17.98
2024-03-01T07:16:50.081Z,20.75
2024-03-01T07:19:20.324Z,29.65
2024-03-01T07:21:49.406Z,17.65
2024-03-01T07:24:18.696Z,26.58
2024-03-01T07:26:47.730Z,24.83
2024-03-01T07:29:18.386Z,19.35
2024-03-01T07:31:54.111Z,23.60
2024-03-01T07:34:23.555Z,18.75
2024-03-01T07:36:56.971Z,22.30
2024-03-01T07:39:27.340Z,25.65
2024-03-01T07:41:59.060Z,28.27
2024-03-01T07:44:32.519Z,18.52
2024-03-01T07:47:07.753Z,19.20
2024-03-01T07:49:37.772Z,26.70
2024-03-01T07:52:10.334Z,24.17
2024-03-01T07:54:40.721Z,23.42
2024-03-01T07:57:13.122Z,22.33
2024-03-01T07:59:46.506Z,20.58
2024-03-01T08:02:19.600Z,20.70
2024-03-01T08:04:52.728Z,20.90
2024-03-01T08:07:24.843Z,24.70
2024-03-01T08:09:55.058Z,19.25
2024-03-01T08:12:25.591Z,20.25
2024-03-01T08:14:57.170Z,18.35
2024-03-01T08:17:36.295Z,22.30
2024-03-01T08:20:27.273Z,20.35
2024-03-01T08:22:57.283Z,18.38
2024-03-01T08:25:27.973Z,18.20
2024-03-01T08:28:04.041Z,17.42
2024-03-01T08:30:46.423Z,18.73
2024-03-01T08:33:25.608Z,23.92
2024-03-01T08:35:54.745Z,47.97
2024-03-01T08:39:21.105Z,24.05
2024-03-01T08:41:59.657Z,21.60
2024-03-01T08:45:04.677Z,18.05
2024-03-01T08:47:39.601Z,18.23
2024-03-01T08:50:39.280Z,27.92
2024-03-01T08:53:52.309Z,17.85
2024-03-01T08:56:23.054Z,22.27
2024-03-01T08:58:55.560Z,24.55
2024-03-01T09:01:50.268Z,22.35
2024-03-01T09:04:30.837Z,22.73
2024-03-01T09:07:11.505Z,23.98
2024-03-01T09:09:42.457Z,26.05
2024-03-01T09:12:23.362Z,28.90
2024-03-01T09:15:02.925Z,21.25
2024-03-01T09:17:33.535Z,19.92
2024-03-01T09:20:17.829Z,19.88
2024-03-01T09:22:48.669Z,19.70
2024-03-01T09:26:08.731Z,18.95
2024-03-01T09:28:40.196Z,27.02
2024-03-01T09:31:11.014Z,22.77
2024-03-01T09:33:40.080Z,19.88
2024-03-01T09:36:17.293Z,21.63
2024-03-01T09:38:49.265Z,24.23
2024-03-01T09:41:54.149Z,22.65
2024-03-01T09:44:39.364Z,21.15
2024-03-01T09:47:22.465Z,23.67
2024-03-01T09:50:10.332Z,25.40
2024-03-01T09:52:51.785Z,17.75
2024-03-01T09:55:29.007Z,20.77
2024-03-01T09:58:07.730Z,21.50
2024-03-01T10:00:44.728Z,26.75
2024-03-01T10:03:23.221Z,24.88
2024-03-01T10:06:17.982Z,22.40
2024-03-01T10:08:59.975Z,29.25
2024-03-01T10:11:39.452Z,25.20
2024-03-01T10:14:27.294Z,22.85
2024-03-01T10:17:11.085Z,28.15
2024-03-01T10:20:07.785Z,25.83
2024-03-01T10:22:53.555Z,24.95
2024-03-01T10:25:42.827Z,22.45
2024-03-01T10:28:35.833Z,24.50
2024-03-01T10:31:14.834Z,24.90
2024-03-01T10:33:59.290Z,24.95
2024-03-01T10:36:38.368Z,23.95
2024-03-01T10:39:14.745Z,23.52
2024-03-01T10:41:56.502Z,30.33
2024-03-01T10:44:35.060Z,26.90
2024-03-01T10:47:19.611Z,28.83
2024-03-01T10:50:09.648Z,24.52
2024-03-01T10:52:46.790Z,23.48
2024-03-01T10:55:22.291Z,23.77
2024-03-01T10:58:06.757Z,25.85
2024-03-01T11:00:43.531Z,22.75
2024-03-01T11:03:26.999Z,31.10
2024-03-01T11:06:12.509Z,30.27
2024-03-01T11:08:52.644Z,24.20
2024-03-01T11:11:32.208Z,26.83
2024-03-01T11:14:08.483Z,26.52
2024-03-01T11:16:44.074Z,28.15
2024-03-01T11:19:17.932Z,23.30
2024-03-01T11:21:53.409Z,26.55
2024-03-01T11:24:29.096Z,25.70
2024-03-01T11:27:09.551Z,25.90
2024-03-01T11:29:49.635Z,27.27
2024-03-01T11:32:26.539Z,27.85
2024-03-01T11:35:06.670Z,30.25
2024-03-01T11:37:54.260Z,23.23
2024-03-01T11:40:33.965Z,31.73
2024-03-01T11:43:26.461Z,28.02
2024-03-01T11:46:13.460Z,27.00
2024-03-01T11:48:59.792Z,32.25
2024-03-01T11:51:38.905Z,28.25
2024-03-01T11:54:27.666Z,24.73
2024-03-01T11:57:08.368Z,28.65
2024-03-01T11:59:54.143Z,29.25
2024-03-01T12:02:42.844Z,29.45
2024-03-01T12:05:22.733Z,29.23
2024-03-01T12:08:32.072Z,27.13
2024-03-01T12:11:14.172Z,27.60
2024-03-01T12:13:49.855Z,28.58
2024-03-01T12:16:28.513Z,27.95
2024-03-01T12:19:09.846Z,24.33
2024-03-01T12:21:57.283Z,25.67
2024-03-01T12:24:30.659Z,27.88
2024-03-01T12:27:07.255Z,25.38
2024-03-01T12:29:56.628Z,26.75
2024-03-01T12:32:39.405Z,34.88
2024-03-01T12:35:27.242Z,28.27
2024-03-01T12:38:12.284Z,28.48
2024-03-01T12:40:53.207Z,28.52
2024-03-01T12:43:43.614Z,30.20
2024-03-01T12:46:47.757Z,26.40
2024-03-01T12:49:35.631Z,26.13
2024-03-01T12:52:25.346Z,28.48
2024-03-01T12:55:10.603Z,25.05
2024-03-01T12:57:51.440Z,30.50
2024-03-01T13:00:27.473Z,27.95
2024-03-01T13:03:20.711Z,28.90
2024-03-01T13:05:53.716Z,29.42
2024-03-01T13:08:29.114Z,28.40
2024-03-01T13:11:06.339Z,27.63
2024-03-01T13:13:42.482Z,28.77
2024-03-01T13:16:17.385Z,29.83
2024-03-01T13:18:59.027Z,27.48
2024-03-01T13:21:35.754Z,29.02
2024-03-01T13:24:17.844Z,32.90
2024-03-01T13:27:07.443Z,30.08
2024-03-01T13:29:40.693Z,34.45
2024-03-01T13:32:13.821Z,26.23
2024-03-01T13:34:56.030Z,31.38
2024-03-01T13:37:38.128Z,25.55
2024-03-01T13:40:16.874Z,26.30
2024-03-01T13:42:48.144Z,26.42
2024-03-01T13:45:25.643Z,23.15
2024-03-01T13:48:08.672Z,27.02
2024-03-01T13:50:40.645Z,25.85
2024-03-01T13:53:16.731Z,24.55
2024-03-01T13:55:49.231Z,23.88
2024-03-01T14:00:51.019Z,23.55
2024-03-01T14:03:21.372Z,23.92
2024-03-01T14:05:56.159Z,28.40
2024-03-01T14:08:26.179Z,26.63
2024-03-01T14:10:58.857Z,22.75
2024-03-01T14:13:29.430Z,27.02
2024-03-01T14:16:08.768Z,24.00
2024-03-01T14:18:38.443Z,26.55
2024-03-01T14:21:07.399Z,30.50
2024-03-01T14:23:45.226Z,24.20
2024-03-01T14:26:18.946Z,25.45
2024-03-01T14:28:50.651Z,23.85
2024-03-01T14:31:28.919Z,25.63
2024-03-01T14:34:00.321Z,25.10
2024-03-01T14:36:31.416Z,24.85
2024-03-01T14:39:04.571Z,22.98
2024-03-01T14:41:50.766Z,26.23
2024-03-01T14:44:31.926Z,26.60
2024-03-01T14:47:21.432Z,22.50
2024-03-01T14:50:08.945Z,27.67
2024-03-01T14:52:43.936Z,24.85
2024-03-01T14:55:16.852Z,24.83
2024-03-01T14:57:49.739Z,20.67
2024-03-01T15:00:27.050Z,27.73
2024-03-01T15:02:59.898Z,26.98
2024-03-01T15:05:33.154Z,23.73
2024-03-01T15:08:23.412Z,27.52
2024-03-01T15:10:52.391Z,22.90
2024-03-01T15:13:29.882Z,25.25
2024-03-01T15:16:01.116Z,25.30
2024-03-01T15:18:31.763Z,24.88
2024-03-01T15:21:02.166Z,33.13
2024-03-01T15:23:47.281Z,28.70
2024-03-01T15:26:21.860Z,25.60
2024-03-01T15:29:05.793Z,24.13
2024-03-01T15:31:37.237Z,27.85
2024-03-01T15:34:10.911Z,31.02
2024-03-01T15:36:39.945Z,24.98
2024-03-01T15:39:11.445Z,24.92
2024-03-01T15:41:41.621Z,23.17
2024-03-01T15:44:11.840Z,20.63
2024-03-01T15:46:44.726Z,26.50
2024-03-01T15:49:15.773Z,24.60
2024-03-01T15:51:47.830Z,24.05
2024-03-01T15:54:17.625Z,22.25
2024-03-01T15:56:53.785Z,21.58
2024-03-01T15:59:27.838Z,26.00
2024-03-01T16:01:58.562Z,25.67
2024-03-01T16:04:31.523Z,25.13
2024-03-01T16:07:04.344Z,22.13
2024-03-01T16:09:39.923Z,23.38
2024-03-01T16:12:14.417Z,21.52
2024-03-01T16:17:25.785Z,23.67
2024-03-01T16:19:56.230Z,21.48
2024-03-01T16:22:34.349Z,22.02
2024-03-01T16:25:09.361Z,21.15
2024-03-01T16:27:42.825Z,22.05
2024-03-01T16:30:29.438Z,22.92
2024-03-01T16:33:00.293Z,22.02
2024-03-01T16:36:06.327Z,23.00
2024-03-01T16:38:43.407Z,29.40
2024-03-01T16:41:36.151Z,21.23
2024-03-01T16:44:11.046Z,23.45
2024-03-01T16:46:43.772Z,21.02
2024-03-01T16:50:10.203Z,22.23
2024-03-01T16:52:37.873Z,21.45
2024-03-01T16:55:36.832Z,25.92
2024-03-01T16:58:09.403Z,24.05
2024-03-01T17:00:48.010Z,23.65
2024-03-01T17:03:28.579Z,21.08
2024-03-01T17:05:59.105Z,26.00
2024-03-01T17:08:38.306Z,28.30
2024-03-01T17:11:11.702Z,28.80
2024-03-01T17:13:43.110Z,25.38
2024-03-01T17:16:27.492Z,25.13
2024-03-01T17:19:52.063Z,23.38
2024-03-01T17:22:25.729Z,21.80
2024-03-01T17:25:01.256Z,25.20
2024-03-01T17:27:44.507Z,41.33
2024-03-01T17:30:24.646Z,24.48
2024-03-01T17:32:57.049Z,21.70
2024-03-01T17:35:53.945Z,26.85
2024-03-01T17:38:25.832Z,20.30
2024-03-01T17:40:57.534Z,22.35
2024-03-01T17:43:32.861Z,20.95
2024-03-01T17:46:03.295Z,17.80
2024-03-01T17:48:40.314Z,21.58
2024-03-01T17:51:25.412Z,22.45
2024-03-01T17:53:56.516Z,21.60
2024-03-01T17:56:38.807Z,17.08
2024-03-01T18:02:09.695Z,22.38
2024-03-01T18:04:48.416Z,19.08
2024-03-01T18:07:25.979Z,19.48
2024-03-01T18:09:57.917Z,19.30
2024-03-01T18:12:35.014Z,23.98
2024-03-01T18:20:22.742Z,16.90
2024-03-01T18:22:59.100Z,22.15
2024-03-01T18:25:36.981Z,20.25
2024-03-01T18:28:11.290Z,18.35
2024-03-01T18:30:53.232Z,22.70
2024-03-01T18:33:22.829Z,17.23
2024-03-01T18:35:53.213Z,18.42
2024-03-01T18:38:23.964Z,20.67
2024-03-01T18:40:54.307Z,17.25
2024-03-01T18:43:31.306Z,20.38
2024-03-01T18:46:11.677Z,18.40
2024-03-01T18:48:47.115Z,19.05
2024-03-01T18:51:22.643Z,16.75
2024-03-01T18:53:54.956Z,19.13
2024-03-01T18:56:26.421Z,17.60
2024-03-01T18:58:59.110Z,17.25
2024-03-01T19:01:31.564Z,18.58
2024-03-01T19:04:04.670Z,17.35
2024-03-01T19:06:45.268Z,19.15
2024-03-01T19:09:18.633Z,21.05
2024-03-01T19:12:00.572Z,19.70
2024-03-01T19:14:56.404Z,20.80
2024-03-01T19:17:33.652Z,18.58
2024-03-01T19:20:11.830Z,19.05
2024-03-01T19:22:45.770Z,18.30
2024-03-01T19:25:19.081Z,19.63
2024-03-01T19:27:50.766Z,16.77
2024-03-01T19:30:21.854Z,17.60
2024-03-01T19:32:56.769Z,19.33
2024-03-01T19:35:27.491Z,18.13
2024-03-01T19:37:56.986Z,18.20
2024-03-01T19:40:28.515Z,20.45
2024-03-01T19:42:59.908Z,19.90
2024-03-01T19:45:32.937Z,18.83
2024-03-01T19:48:03.198Z,18.90
2024-03-01T19:50:33.838Z,19.60
2024-03-01T19:53:03.416Z,19.98
2024-03-01T19:55:35.414Z,20.40
2024-03-01T19:58:04.783Z,20.05
2024-03-01T20:00:34.330Z,19.45
2024-03-01T20:03:04.266Z,23.08
2024-03-01T20:05:33.741Z,19.23
2024-03-01T20:08:05.501Z,21.00
2024-03-01T20:10:38.777Z,19.95
2024-03-01T20:13:10.757Z,24.27
2024-03-01T20:15:40.148Z,28.35
2024-03-01T20:18:10.688Z,23.63
2024-03-01T20:20:39.981Z,18.30
2024-03-01T20:23:09.162Z,18.42
2024-03-01T20:25:41.857Z,17.88
2024-03-01T20:28:11.899Z,22.17
2024-03-01T20:30:41.992Z,18.63
2024-03-01T20:33:14.021Z,16.70
2024-03-01T20:35:44.245Z,18.40
2024-03-01T20:38:13.670Z,17.52
2024-03-01T20:40:45.888Z,23.15
2024-03-01T20:45:45.878Z,22.30
2024-03-01T20:48:15.545Z,22.33
2024-03-01T20:50:44.612Z,20.75
2024-03-01T20:53:15.176Z,23.40
2024-03-01T20:55:47.707Z,23.58
2024-03-01T20:58:17.847Z,21.67
2024-03-01T21:00:49.386Z,21.98
2024-03-01T21:03:24.329Z,20.27
2024-03-01T21:05:55.840Z,22.80
2024-03-01T21:08:25.272Z,21.30
2024-03-01T21:10:58.077Z,21.85
2024-03-01T21:13:31.977Z,23.13
2024-03-01T21:16:02.330Z,22.48
2024-03-01T21:18:31.953Z,24.17
2024-03-01T21:21:02.129Z,21.63
2024-03-01T21:23:33.738Z,22.88
2024-03-01T21:26:09.230Z,22.23
2024-03-01T21:28:40.063Z,25.70
2024-03-01T21:31:09.151Z,26.02
2024-03-01T21:33:40.975Z,23.30
2024-03-01T21:36:14.491Z,24.50
2024-03-01T21:38:46.686Z,22.92
2024-03-01T21:41:17.965Z,21.38
2024-03-01T21:43:51.324Z,24.20
2024-03-01T21:46:20.498Z,23.65
2024-03-01T21:48:49.981Z,21.48
2024-03-01T21:51:22.422Z,23.08
2024-03-01T21:53:53.834Z,20.45
2024-03-01T21:56:25.209Z,22.55
2024-03-01T21:58:54.930Z,23.40
2024-03-01T22:01:26.885Z,23.52
2024-03-01T22:03:58.548Z,22.73
2024-03-01T22:06:28.985Z,20.90
2024-03-01T22:09:04.697Z,29.95
2024-03-01T22:11:35.249Z,40.90
2024-03-01T22:14:04.619Z,33.97
2024-03-01T22:16:34.528Z,39.50
2024-03-01T22:19:03.774Z,23.65
2024-03-01T22:21:32.939Z,29.40
2024-03-01T22:24:01.841Z,31.88
2024-03-01T22:26:31.941Z,24.85
2024-03-01T22:29:04.519Z,32.45
2024-03-01T22:31:34.499Z,25.60
2024-03-01T22:34:05.844Z,30.48
2024-03-01T22:36:39.374Z,28.23
2024-03-01T22:39:10.289Z,24.30
2024-03-01T22:41:41.497Z,31.67
2024-03-01T22:44:22.761Z,28.38
2024-03-01T22:46:55.369Z,30.02
2024-03-01T22:49:24.953Z,27.88
2024-03-01T22:51:57.434Z,32.13
2024-03-01T22:54:30.853Z,27.23
2024-03-01T22:57:03.531Z,30.77
2024-03-01T23:00:22.758Z,27.92
2024-03-01T23:02:56.667Z,47.80
2024-03-01T23:05:49.860Z,36.53
2024-03-01T23:08:45.256Z,33.95
2024-03-01T23:11:40.530Z,25.00
2024-03-01T23:14:46.227Z,27.00
2024-03-01T23:17:18.408Z,35.78
2024-03-01T23:19:48.454Z,28.83
2024-03-01T23:22:23.244Z,31.60
2024-03-01T23:24:53.486Z,31.05
2024-03-01T23:27:22.792Z,32.08
2024-03-01T23:29:54.843Z,27.30
2024-03-01T23:32:25.489Z,30.48
2024-03-01T23:34:54.777Z,34.25
2024-03-01T23:37:27.363Z,26.88
2024-03-01T23:39:58.632Z,34.28
2024-03-01T23:42:29.685Z,34.97
2024-03-01T23:45:00.153Z,30.50
2024-03-01T23:47:30.501Z,28.20
2024-03-01T23:50:01.045Z,34.53
2024-03-01T23:52:29.998Z,33.38
2024-03-01T23:55:05.239Z,30.20
2024-03-01T23:57:35.771Z,27.55
